createdAt,value
2023-01-29T00:00:10.316Z,3.16
2023-01-29T00:05:26.438Z,3.16
2023-01-29T00:10:27.738Z,3.20
2023-01-29T00:15:28.093Z,3.24
2023-01-29T00:20:27.246Z,3.29
2023-01-29T00:25:26.389Z,3.33
2023-01-29T00:30:25.259Z,3.35
2023-01-29T00:35:25.656Z,3.39
2023-01-29T00:40:28.256Z,3.41
2023-01-29T00:45:29.443Z,3.43
2023-01-29T00:50:30.155Z,3.45
2023-01-29T00:55:30.310Z,3.46
2023-01-29T01:00:29.252Z,3.48
2023-01-29T01:05:30.201Z,3.48
2023-01-29T01:10:31.860Z,3.49
2023-01-29T01:15:33.237Z,3.50
2023-01-29T01:20:36.054Z,3.31
2023-01-29T01:25:37.009Z,3.09
2023-01-29T01:30:36.029Z,3.02
2023-01-29T01:35:36.338Z,2.87
2023-01-29T01:40:36.969Z,2.94
2023-01-29T01:45:37.741Z,2.90
2023-01-29T01:50:44.604Z,2.55
2023-01-29T01:55:52.059Z,2.55
2023-01-29T02:00:52.135Z,2.61
2023-01-29T02:06:12.714Z,2.61
2023-01-29T02:11:12.128Z,2.32
2023-01-29T02:16:11.650Z,2.30
2023-01-29T02:21:29.334Z,2.24
2023-01-29T02:26:55.261Z,2.13
2023-01-29T02:32:07.820Z,2.11
2023-01-29T02:37:13.944Z,1.70
2023-01-29T02:42:18.335Z,2.07
2023-01-29T02:47:23.932Z,2.12
2023-01-29T02:52:27.852Z,2.08
2023-01-29T02:57:33.188Z,2.33
2023-01-29T03:02:39.529Z,2.46
2023-01-29T03:07:42.929Z,2.44
2023-01-29T03:12:47.375Z,2.36
2023-01-29T03:17:57.677Z,2.22
2023-01-29T03:23:01.543Z,2.15
2023-01-29T03:28:20.623Z,2.08
2023-01-29T03:33:25.300Z,2.13
2023-01-29T03:38:29.784Z,1.75
2023-01-29T03:43:35.859Z,1.89
2023-01-29T03:48:41.451Z,2.04
2023-01-29T03:53:45.786Z,1.84
2023-01-29T03:58:50.343Z,1.70
2023-01-29T04:03:57.148Z,1.84
2023-01-29T04:09:00.744Z,1.75
2023-01-29T04:13:59.874Z,1.98
2023-01-29T04:19:01.563Z,1.79
2023-01-29T04:24:08.737Z,1.98
2023-01-29T04:29:26.146Z,1.91
2023-01-29T04:34:38.317Z,1.74
2023-01-29T04:39:45.310Z,1.63
2023-01-29T04:44:53.040Z,1.70
2023-01-29T04:50:03.960Z,1.85
2023-01-29T04:55:07.640Z,1.95
2023-01-29T05:00:13.451Z,1.97
2023-01-29T05:05:16.104Z,2.04
2023-01-29T05:10:17.291Z,2.26
2023-01-29T05:15:21.490Z,2.35
2023-01-29T05:20:22.547Z,2.52
2023-01-29T05:25:24.265Z,2.65
2023-01-29T05:30:23.196Z,2.30
2023-01-29T05:35:23.414Z,1.87
2023-01-29T05:40:22.383Z,2.14
2023-01-29T05:45:21.291Z,2.06
2023-01-29T05:50:20.455Z,2.47
2023-01-29T05:55:20.897Z,2.49
2023-01-29T06:00:20.776Z,2.34
2023-01-29T06:05:19.855Z,2.26
2023-01-29T06:10:21.011Z,2.00
2023-01-29T06:15:20.965Z,2.12
2023-01-29T06:20:20.047Z,2.14
2023-01-29T06:25:20.477Z,2.24
2023-01-29T06:30:20.245Z,2.13
2023-01-29T06:35:19.373Z,2.15
2023-01-29T06:40:18.743Z,2.12
2023-01-29T06:45:19.460Z,2.11
2023-01-29T06:50:19.229Z,1.93
2023-01-29T06:55:18.655Z,1.98
2023-01-29T07:00:20.667Z,2.15
2023-01-29T07:05:19.775Z,2.28
2023-01-29T07:10:19.263Z,2.53
2023-01-29T07:15:21.484Z,2.65
2023-01-29T07:20:22.016Z,2.85
2023-01-29T07:25:21.002Z,3.03
2023-01-29T07:30:26.472Z,3.16
2023-01-29T07:35:27.904Z,3.24
2023-01-29T07:40:27.822Z,3.34
2023-01-29T07:45:28.944Z,3.33
2023-01-29T07:50:29.846Z,3.48
2023-01-29T07:55:29.315Z,3.68
2023-01-29T08:00:33.140Z,3.82
2023-01-29T08:05:32.897Z,3.74
2023-01-29T08:10:32.194Z,3.94
2023-01-29T08:15:33.217Z,4.14
2023-01-29T08:20:32.427Z,4.40
2023-01-29T08:25:31.590Z,4.52
2023-01-29T08:30:35.190Z,4.59
2023-01-29T08:35:34.329Z,4.42
2023-01-29T08:40:35.434Z,4.52
2023-01-29T08:45:38.205Z,4.36
2023-01-29T08:50:37.413Z,4.33
2023-01-29T08:55:39.796Z,4.44
2023-01-29T09:00:40.562Z,4.63
2023-01-29T09:05:40.701Z,4.68
2023-01-29T09:10:39.604Z,4.76
2023-01-29T09:15:39.880Z,4.68
2023-01-29T09:20:39.084Z,4.66
2023-01-29T09:25:38.405Z,4.62
2023-01-29T09:30:38.294Z,4.53
2023-01-29T09:35:41.307Z,4.56
2023-01-29T09:40:51.899Z,4.39
2023-01-29T09:45:57.944Z,4.44
2023-01-29T09:51:01.898Z,4.41
2023-01-29T09:56:04.349Z,4.45
2023-01-29T10:01:13.605Z,4.53
2023-01-29T10:06:29.298Z,4.50
2023-01-29T10:11:39.681Z,4.31
2023-01-29T10:16:51.948Z,4.16
2023-01-29T10:22:27.510Z,4.35
2023-01-29T10:27:33.319Z,4.48
2023-01-29T10:32:33.440Z,4.62
2023-01-29T10:37:40.571Z,4.48
2023-01-29T10:42:47.758Z,4.50
2023-01-29T10:48:06.237Z,4.14
2023-01-29T10:53:27.470Z,4.06
2023-01-29T10:58:35.678Z,4.19
2023-01-29T11:03:35.547Z,4.54
2023-01-29T11:08:41.556Z,4.69
2023-01-29T11:13:46.714Z,4.47
2023-01-29T11:18:54.874Z,4.69
2023-01-29T11:24:07.595Z,4.74
2023-01-29T11:29:06.627Z,4.53
2023-01-29T11:34:14.314Z,4.69
2023-01-29T11:39:20.779Z,4.84
2023-01-29T11:44:28.934Z,4.87
2023-01-29T11:49:34.275Z,4.78
2023-01-29T11:54:40.039Z,4.78
2023-01-29T11:59:42.949Z,4.87
2023-01-29T12:04:42.262Z,4.83
2023-01-29T12:09:42.607Z,4.72
2023-01-29T12:14:41.621Z,4.74
2023-01-29T12:19:47.831Z,4.75
2023-01-29T12:24:55.716Z,4.89
2023-01-29T12:30:05.258Z,4.90
2023-01-29T12:35:12.664Z,4.93
2023-01-29T12:40:38.867Z,5.00
2023-01-29T12:45:39.018Z,4.87
2023-01-29T12:50:39.848Z,4.90
2023-01-29T12:55:45.117Z,4.95
2023-01-29T13:00:48.855Z,4.82
2023-01-29T13:05:51.740Z,4.73
2023-01-29T13:10:56.363Z,4.65
2023-01-29T13:16:00.244Z,4.68
2023-01-29T13:21:03.795Z,4.65
2023-01-29T13:26:07.892Z,4.69
2023-01-29T13:31:22.910Z,4.74
2023-01-29T13:36:27.574Z,4.79
2023-01-29T13:41:47.959Z,4.89
2023-01-29T13:46:53.342Z,4.85
2023-01-29T13:51:54.115Z,4.80
2023-01-29T13:57:02.659Z,4.75
2023-01-29T14:02:23.052Z,4.82
2023-01-29T14:07:51.321Z,4.89
2023-01-29T14:12:56.055Z,4.89
2023-01-29T14:18:01.761Z,4.91
2023-01-29T14:23:04.715Z,4.92
2023-01-29T14:28:14.901Z,4.92
2023-01-29T14:33:29.578Z,4.90
2023-01-29T14:38:30.335Z,4.87
2023-01-29T14:43:33.186Z,4.90
2023-01-29T14:48:50.240Z,4.94
2023-01-29T14:54:00.881Z,4.96
2023-01-29T14:59:16.066Z,4.89
2023-01-29T15:04:21.635Z,4.62
2023-01-29T15:09:36.847Z,4.46
2023-01-29T15:14:43.789Z,4.47
2023-01-29T15:19:45.208Z,4.55
2023-01-29T15:24:45.645Z,4.65
2023-01-29T15:29:50.063Z,4.74
2023-01-29T15:34:50.533Z,4.78
2023-01-29T15:39:53.227Z,4.83
2023-01-29T15:44:56.114Z,4.86
2023-01-29T15:49:57.484Z,4.85
2023-01-29T15:55:02.021Z,4.87
2023-01-29T16:00:04.720Z,4.87
2023-01-29T16:05:17.563Z,4.80
2023-01-29T16:10:20.246Z,4.79
2023-01-29T16:15:32.394Z,4.79
2023-01-29T16:20:38.420Z,4.75
2023-01-29T16:25:40.058Z,4.79
2023-01-29T16:30:41.571Z,4.77
2023-01-29T16:35:41.608Z,4.71
2023-01-29T16:40:42.304Z,4.54
2023-01-29T16:45:42.790Z,4.08
2023-01-29T16:50:54.286Z,3.95
2023-01-29T16:55:56.071Z,3.78
2023-01-29T17:01:00.215Z,3.94
2023-01-29T17:06:00.132Z,3.61
2023-01-29T17:10:59.349Z,3.42
2023-01-29T17:16:04.277Z,3.51
2023-01-29T17:21:03.187Z,3.37
2023-01-29T17:26:02.719Z,3.55
2023-01-29T17:31:06.816Z,3.60
2023-01-29T17:36:06.373Z,3.73
2023-01-29T17:41:08.740Z,3.57
2023-01-29T17:46:13.496Z,3.56
2023-01-29T17:51:15.027Z,3.45
2023-01-29T17:56:17.504Z,3.35
2023-01-29T18:01:18.010Z,3.20
2023-01-29T18:06:25.300Z,3.39
2023-01-29T18:11:24.549Z,3.22
2023-01-29T18:16:28.832Z,2.90
2023-01-29T18:21:27.761Z,3.19
2023-01-29T18:26:26.818Z,3.34
2023-01-29T18:31:27.285Z,3.41
2023-01-29T18:36:26.779Z,3.46
2023-01-29T18:41:26.166Z,3.68
2023-01-29T18:46:26.703Z,3.74
2023-01-29T18:51:25.943Z,3.97
2023-01-29T18:56:25.883Z,4.12
2023-01-29T19:01:27.408Z,4.23
2023-01-29T19:06:37.098Z,4.37
2023-01-29T19:11:36.751Z,4.49
2023-01-29T19:16:40.146Z,4.55
2023-01-29T19:21:39.418Z,4.60
2023-01-29T19:26:38.390Z,4.60
2023-01-29T19:31:38.351Z,4.68
2023-01-29T19:36:39.095Z,4.64
2023-01-29T19:41:38.108Z,4.69
2023-01-29T19:46:37.067Z,4.75
2023-01-29T19:51:41.561Z,4.84
2023-01-29T19:56:47.775Z,4.87
2023-01-29T20:01:46.593Z,4.84
2023-01-29T20:06:50.317Z,4.82
2023-01-29T20:11:56.036Z,4.86
2023-01-29T20:17:00.884Z,4.90
2023-01-29T20:22:01.440Z,4.92
2023-01-29T20:27:00.844Z,4.95
2023-01-29T20:32:00.647Z,4.98
2023-01-29T20:37:01.099Z,4.92
2023-01-29T20:42:00.364Z,4.80
2023-01-29T20:47:01.825Z,4.84
2023-01-29T20:52:03.063Z,4.83
2023-01-29T20:57:04.879Z,4.79
2023-01-29T21:02:03.927Z,4.80
2023-01-29T21:07:04.270Z,4.83
2023-01-29T21:12:05.434Z,4.71
2023-01-29T21:17:04.958Z,4.59
2023-01-29T21:22:05.274Z,4.39
2023-01-29T21:27:04.090Z,4.08
2023-01-29T21:32:04.454Z,3.97
2023-01-29T21:37:04.643Z,3.77
2023-01-29T21:42:20.800Z,3.78
2023-01-29T21:47:19.801Z,3.33
2023-01-29T21:52:20.242Z,3.39
2023-01-29T21:57:33.159Z,2.88
2023-01-29T22:02:32.408Z,2.94
2023-01-29T22:07:32.880Z,3.05
2023-01-29T22:12:31.965Z,3.01
2023-01-29T22:17:31.044Z,2.84
2023-01-29T22:22:29.937Z,2.80
2023-01-29T22:27:30.460Z,2.93
2023-01-29T22:32:30.766Z,2.89
2023-01-29T22:37:32.925Z,2.74
2023-01-29T22:42:40.357Z,2.61
2023-01-29T22:47:42.219Z,2.72
2023-01-29T22:52:43.523Z,2.83
2023-01-29T22:57:43.820Z,3.00
2023-01-29T23:02:43.610Z,2.89
2023-01-29T23:07:42.586Z,2.86
2023-01-29T23:12:41.709Z,2.83
2023-01-29T23:17:41.998Z,2.90
2023-01-29T23:22:40.925Z,3.02
2023-01-29T23:27:39.723Z,2.61
2023-01-29T23:32:38.571Z,2.05
2023-01-29T23:37:38.697Z,1.60
2023-01-29T23:42:37.511Z,1.41
2023-01-29T23:47:36.478Z,1.74
2023-01-29T23:52:35.279Z,1.74
2023-01-29T23:57:35.419Z,2.12
